Time;durP1;ratioP1;P1;durP2;ratioP2;P2;SDS_P1;SDS_P2;PMS_P1;PMS_P2;Temp;Humidity;BMP_temperature;BMP_pressure;BME280_temperature;BME280_humidity;BME280_pressure;Samples;Min_cycle;Max_cycle;Signal;HPM_P1;HPM_P2
2022/05/17 00:02:09;;;;;;;8.48;1.77;;;15.00;99.90;;;;;;5021099;28;20033;-70
2022/05/17 00:04:35;;;;;;;4.05;1.48;;;15.00;99.90;;;;;;5023543;28;20476;-70
2022/05/17 00:07:02;;;;;;;12.98;2.30;;;15.00;99.90;;;;;;5016757;28;20040;-70
2022/05/17 00:09:28;;;;;;;7.22;2.10;;;15.00;99.90;;;;;;5019928;28;20029;-70
2022/05/17 00:11:56;;;;;;;6.07;2.15;;;15.00;99.90;;;;;;5017576;28;20044;-71
2022/05/17 00:14:21;;;;;;;10.77;1.48;;;15.10;99.90;;;;;;5017836;28;20026;-69
2022/05/17 00:16:47;;;;;;;9.80;2.03;;;15.10;99.90;;;;;;5017887;28;20056;-70
2022/05/17 00:19:19;;;;;;;9.80;2.28;;;15.10;99.90;;;;;;5018583;28;20451;-71
2022/05/17 00:21:45;;;;;;;5.50;1.77;;;15.10;99.90;;;;;;5014930;28;20041;-70
2022/05/17 00:24:11;;;;;;;6.93;1.60;;;15.10;99.90;;;;;;5017531;28;20560;-71
2022/05/17 00:26:37;;;;;;;6.60;1.45;;;15.10;99.90;;;;;;5018570;28;20033;-71
2022/05/17 00:29:04;;;;;;;7.82;1.70;;;15.10;99.90;;;;;;5019607;28;20389;-70
2022/05/17 00:31:30;;;;;;;5.93;1.52;;;15.10;99.90;;;;;;5017876;28;20037;-70
2022/05/17 00:33:56;;;;;;;7.07;1.50;;;15.10;99.90;;;;;;5019002;28;20037;-70
2022/05/17 00:36:22;;;;;;;5.43;1.45;;;15.10;99.90;;;;;;5019156;28;20389;-70
2022/05/17 00:38:48;;;;;;;10.95;1.58;;;15.10;99.90;;;;;;5018035;28;20172;-70
2022/05/17 00:41:14;;;;;;;6.68;1.27;;;15.10;99.90;;;;;;5020783;28;20116;-71
2022/05/17 00:46:51;;;;;;;8.55;1.75;;;15.10;99.90;;;;;;5019267;28;20044;-70
2022/05/17 00:49:36;;;;;;;4.90;1.38;;;15.10;99.90;;;;;;5017766;28;20109;-71
2022/05/17 00:52:06;;;;;;;9.98;1.95;;;15.20;99.90;;;;;;5019095;28;20061;-70
2022/05/17 00:54:33;;;;;;;4.32;1.02;;;15.10;99.90;;;;;;5016668;28;20026;-70
2022/05/17 00:57:07;;;;;;;6.50;1.27;;;15.20;99.90;;;;;;5018662;28;20153;-70
2022/05/17 00:59:36;;;;;;;12.00;1.42;;;15.20;99.90;;;;;;5015418;28;20026;-70
2022/05/17 01:02:01;;;;;;;5.35;1.52;;;15.20;99.90;;;;;;5020036;28;20037;-70
2022/05/17 01:04:27;;;;;;;6.03;1.60;;;15.10;99.90;;;;;;5020491;28;20034;-70
2022/05/17 01:07:04;;;;;;;9.57;1.92;;;15.20;99.90;;;;;;5017700;28;20576;-71
2022/05/17 01:09:30;;;;;;;8.52;1.95;;;15.20;99.90;;;;;;5018896;28;20033;-71
2022/05/17 01:11:56;;;;;;;4.05;1.20;;;15.10;99.90;;;;;;5015788;28;20095;-70
2022/05/17 01:17:06;;;;;;;4.57;1.42;;;15.10;99.90;;;;;;5016664;28;20445;-70
2022/05/17 01:19:31;;;;;;;7.65;1.33;;;15.10;99.90;;;;;;5020153;28;20041;-72
2022/05/17 01:21:57;;;;;;;6.47;1.35;;;15.00;99.90;;;;;;5015426;28;20041;-70
2022/05/17 01:24:24;;;;;;;6.90;1.58;;;15.00;99.90;;;;;;5017271;28;20038;-71
2022/05/17 01:26:56;;;;;;;3.90;1.15;;;14.90;99.90;;;;;;5018434;28;20133;-70
2022/05/17 01:29:22;;;;;;;3.22;1.30;;;14.90;99.90;;;;;;5018165;28;20060;-69
2022/05/17 01:31:48;;;;;;;7.38;1.58;;;14.80;99.90;;;;;;5017014;28;20482;-71
2022/05/17 01:34:14;;;;;;;8.25;1.80;;;14.80;99.90;;;;;;5017196;28;20026;-70
2022/05/17 01:36:41;;;;;;;3.65;1.60;;;14.80;99.90;;;;;;5016059;28;20037;-71
2022/05/17 01:39:07;;;;;;;6.75;1.77;;;14.80;99.90;;;;;;5020064;28;20025;-71
2022/05/17 01:41:33;;;;;;;6.32;1.75;;;14.80;99.90;;;;;;5016789;28;20030;-71
2022/05/17 01:43:59;;;;;;;5.00;1.52;;;14.80;99.90;;;;;;5022756;28;20040;-71
2022/05/17 01:46:25;;;;;;;6.95;2.20;;;14.80;99.90;;;;;;5019799;28;20148;-70
2022/05/17 01:48:51;;;;;;;5.47;1.67;;;14.70;99.90;;;;;;5021835;28;20129;-70
2022/05/17 01:51:18;;;;;;;4.72;1.60;;;14.70;99.90;;;;;;5020658;28;20569;-70
2022/05/17 01:53:44;;;;;;;5.15;1.77;;;14.70;99.90;;;;;;5019851;28;20022;-70
2022/05/17 01:56:10;;;;;;;3.03;1.52;;;14.70;99.90;;;;;;5019903;28;20121;-70
2022/05/17 01:58:36;;;;;;;4.55;1.65;;;14.60;99.90;;;;;;5020493;28;20104;-70
2022/05/17 02:01:06;;;;;;;4.97;1.73;;;14.60;99.90;;;;;;5020015;28;20061;-71
2022/05/17 02:03:31;;;;;;;4.22;1.70;;;14.50;99.90;;;;;;5019072;28;20022;-70
2022/05/17 02:05:57;;;;;;;6.38;2.28;;;14.50;99.90;;;;;;5021080;28;20080;-70
2022/05/17 02:08:22;;;;;;;6.55;1.70;;;14.40;99.90;;;;;;5019289;28;20137;-70
2022/05/17 02:10:48;;;;;;;4.25;1.75;;;14.40;99.90;;;;;;5020976;28;20688;-70
2022/05/17 02:13:16;;;;;;;13.18;2.53;;;14.40;99.90;;;;;;5021537;28;20116;-70
2022/05/17 02:15:41;;;;;;;5.07;2.03;;;14.30;99.90;;;;;;5019989;28;20502;-71
2022/05/17 02:18:07;;;;;;;8.73;2.05;;;14.30;99.90;;;;;;5020925;28;20061;-70
2022/05/17 02:20:34;;;;;;;3.80;1.70;;;14.20;99.90;;;;;;5019242;28;20492;-70
2022/05/17 02:23:00;;;;;;;5.53;1.70;;;14.10;99.90;;;;;;5018634;28;20054;-70
2022/05/17 02:25:25;;;;;;;5.53;2.08;;;14.10;99.90;;;;;;5021168;28;20038;-70
2022/05/17 02:27:51;;;;;;;5.68;2.15;;;14.10;99.90;;;;;;5021117;28;20046;-70
2022/05/17 02:30:17;;;;;;;9.65;2.22;;;14.00;99.90;;;;;;5020665;28;20433;-70
2022/05/17 02:32:42;;;;;;;4.72;1.90;;;14.00;99.90;;;;;;5017923;28;20046;-70
2022/05/17 02:35:10;;;;;;;7.57;1.90;;;14.00;99.90;;;;;;5021710;28;20041;-70
2022/05/17 02:37:36;;;;;;;6.13;2.10;;;14.10;99.90;;;;;;5018634;28;20387;-70
2022/05/17 02:40:02;;;;;;;5.55;2.00;;;14.10;99.90;;;;;;5022099;28;20064;-70
2022/05/17 02:42:27;;;;;;;4.18;1.95;;;14.10;99.90;;;;;;5020990;28;20414;-70
2022/05/17 02:44:53;;;;;;;4.50;1.98;;;14.10;99.90;;;;;;5029170;28;20037;-70
2022/05/17 02:47:19;;;;;;;5.25;2.15;;;14.10;99.90;;;;;;5027787;28;20051;-71
2022/05/17 02:49:45;;;;;;;4.70;2.30;;;14.10;99.90;;;;;;5025310;28;20069;-71
2022/05/17 02:52:12;;;;;;;8.52;2.20;;;14.10;99.90;;;;;;5021848;28;20029;-70
2022/05/17 02:54:39;;;;;;;8.18;2.38;;;14.10;99.90;;;;;;5018113;28;20053;-71
2022/05/17 02:57:06;;;;;;;5.80;1.85;;;14.20;99.90;;;;;;5020314;28;20102;-70
2022/05/17 02:59:31;;;;;;;9.57;2.53;;;14.20;99.90;;;;;;5022395;28;20030;-69
2022/05/17 03:01:57;;;;;;;8.65;2.65;;;14.20;99.90;;;;;;5018522;28;20102;-70
2022/05/17 03:04:23;;;;;;;5.47;2.63;;;14.20;99.90;;;;;;5017052;28;20030;-70
2022/05/17 03:06:48;;;;;;;7.30;2.22;;;14.30;99.90;;;;;;5019154;28;20042;-71
2022/05/17 03:09:14;;;;;;;5.82;2.42;;;14.30;99.90;;;;;;5018733;28;20033;-71
2022/05/17 03:11:42;;;;;;;15.73;3.42;;;14.30;99.90;;;;;;5019524;28;20037;-70
2022/05/17 03:14:08;;;;;;;8.05;2.80;;;14.40;99.90;;;;;;5021800;28;20044;-71
2022/05/17 03:16:34;;;;;;;3.85;1.85;;;14.40;99.90;;;;;;5021853;28;20035;-70
2022/05/17 03:19:01;;;;;;;10.25;3.17;;;14.40;99.90;;;;;;5017164;28;20034;-71
2022/05/17 03:21:27;;;;;;;5.78;2.20;;;14.40;99.90;;;;;;5022307;28;20397;-70
2022/05/17 03:23:53;;;;;;;8.05;2.45;;;14.50;99.90;;;;;;5017940;28;20037;-70
2022/05/17 03:26:19;;;;;;;8.38;2.33;;;14.50;99.90;;;;;;5022146;28;20037;-70
2022/05/17 03:28:45;;;;;;;8.93;2.22;;;14.50;99.90;;;;;;5020015;28;20564;-70
2022/05/17 03:31:11;;;;;;;4.55;1.92;;;14.50;99.90;;;;;;5020445;28;20061;-69
2022/05/17 03:33:37;;;;;;;5.32;2.30;;;14.50;99.90;;;;;;5017697;28;20485;-70
2022/05/17 03:36:04;;;;;;;7.28;3.75;;;14.50;99.90;;;;;;5018790;28;20084;-70
2022/05/17 03:38:30;;;;;;;8.68;3.17;;;14.50;99.90;;;;;;5020207;28;20046;-71
2022/05/17 03:40:58;;;;;;;8.75;2.95;;;14.50;99.90;;;;;;5016263;28;20490;-70
2022/05/17 03:43:24;;;;;;;8.55;3.75;;;14.60;99.90;;;;;;5020339;28;20038;-69
2022/05/17 03:45:50;;;;;;;4.85;1.95;;;14.60;99.90;;;;;;5016240;28;20061;-70
2022/05/17 03:48:16;;;;;;;6.93;2.55;;;14.60;99.90;;;;;;5021009;28;20053;-70
2022/05/17 03:50:42;;;;;;;10.50;2.53;;;14.60;99.90;;;;;;5017412;28;20878;-70
2022/05/17 03:53:08;;;;;;;4.68;2.15;;;14.70;99.90;;;;;;5019242;28;20147;-70
2022/05/17 03:56:11;;;;;;;8.50;2.20;;;14.70;99.90;;;;;;5019962;28;20362;-71
2022/05/17 03:58:38;;;;;;;6.75;2.15;;;14.70;99.90;;;;;;5029435;28;20048;-71
2022/05/17 04:01:05;;;;;;;5.75;2.10;;;14.70;99.90;;;;;;5026120;28;20037;-70
2022/05/17 04:03:31;;;;;;;4.90;1.90;;;14.80;99.90;;;;;;5019033;28;20105;-71
2022/05/17 04:05:57;;;;;;;4.70;2.00;;;14.80;99.90;;;;;;5016372;28;20461;-70
2022/05/17 04:08:23;;;;;;;7.68;2.05;;;14.80;99.90;;;;;;5017930;28;20030;-70
2022/05/17 04:10:48;;;;;;;10.25;2.60;;;14.80;99.90;;;;;;5020258;28;20092;-70
2022/05/17 04:13:14;;;;;;;6.30;1.98;;;14.80;99.90;;;;;;5017028;28;20100;-70
2022/05/17 04:15:41;;;;;;;7.35;2.78;;;14.80;99.90;;;;;;5018821;28;20522;-70
2022/05/17 04:18:07;;;;;;;7.68;2.17;;;14.80;99.90;;;;;;5019554;28;20108;-70
2022/05/17 04:20:33;;;;;;;4.97;2.35;;;14.90;99.90;;;;;;5018279;28;20516;-71
2022/05/17 04:22:59;;;;;;;6.45;2.45;;;14.90;99.90;;;;;;5017795;28;20562;-70
2022/05/17 04:25:26;;;;;;;6.05;2.60;;;15.00;99.90;;;;;;5017278;28;20120;-71
2022/05/17 04:27:52;;;;;;;12.43;2.17;;;15.00;99.90;;;;;;5015273;28;20070;-71
2022/05/17 04:30:19;;;;;;;8.50;2.80;;;15.00;99.90;;;;;;5020466;28;20037;-70
2022/05/17 04:32:46;;;;;;;6.00;2.00;;;15.10;99.90;;;;;;5018537;28;20114;-70
2022/05/17 04:35:12;;;;;;;5.90;2.30;;;15.10;99.90;;;;;;5017173;28;20059;-71
2022/05/17 04:37:38;;;;;;;12.18;2.20;;;15.20;99.90;;;;;;5017009;28;20034;-71
2022/05/17 04:40:08;;;;;;;9.20;3.03;;;15.20;99.90;;;;;;5016770;28;20037;-70
2022/05/17 04:42:38;;;;;;;5.35;2.25;;;15.20;99.90;;;;;;5018642;28;20037;-70
2022/05/17 04:45:05;;;;;;;7.93;2.30;;;15.30;99.90;;;;;;5018122;28;20565;-71
2022/05/17 04:47:31;;;;;;;5.72;2.83;;;15.30;99.90;;;;;;5044219;28;20041;-71
2022/05/17 04:49:56;;;;;;;7.72;1.90;;;15.40;99.90;;;;;;5021909;28;20060;-70
2022/05/17 04:52:26;;;;;;;4.05;1.90;;;15.40;99.90;;;;;;5017403;28;20170;-70
2022/05/17 04:54:53;;;;;;;3.77;1.47;;;15.40;99.90;;;;;;5015822;28;20026;-70
2022/05/17 04:57:18;;;;;;;6.82;1.90;;;15.50;99.90;;;;;;5021616;28;20609;-71
2022/05/17 04:59:44;;;;;;;5.82;1.95;;;15.50;99.90;;;;;;5025283;28;20037;-70
2022/05/17 05:02:10;;;;;;;3.83;2.33;;;15.50;99.90;;;;;;5021555;28;20034;-71
2022/05/17 05:04:38;;;;;;;3.80;1.70;;;15.60;99.90;;;;;;5019836;28;20025;-71
2022/05/17 05:07:04;;;;;;;6.57;2.00;;;15.70;99.90;;;;;;5020756;28;20037;-71
2022/05/17 05:09:30;;;;;;;4.18;1.92;;;15.70;99.90;;;;;;5024118;28;20444;-71
2022/05/17 05:11:55;;;;;;;4.78;1.85;;;15.70;99.90;;;;;;5021774;28;21361;-69
2022/05/17 05:14:21;;;;;;;7.20;2.10;;;15.70;99.90;;;;;;5022540;28;20033;-70
2022/05/17 05:16:47;;;;;;;8.40;2.30;;;15.80;99.90;;;;;;5024043;28;20033;-70
2022/05/17 05:19:12;;;;;;;6.85;2.25;;;15.90;99.90;;;;;;5028667;28;20061;-70
2022/05/17 05:21:38;;;;;;;5.43;1.70;;;16.00;99.90;;;;;;5021739;28;20405;-71
2022/05/17 05:24:06;;;;;;;4.03;1.70;;;16.00;99.90;;;;;;5027065;28;20208;-71
2022/05/17 05:26:33;;;;;;;10.32;2.38;;;16.10;99.90;;;;;;5027728;28;20036;-71
2022/05/17 05:28:59;;;;;;;10.57;2.72;;;16.10;99.90;;;;;;5025935;28;20509;-69
2022/05/17 05:31:25;;;;;;;7.70;2.25;;;16.20;99.90;;;;;;5027544;28;20036;-70
2022/05/17 05:33:50;;;;;;;7.43;2.17;;;16.20;99.90;;;;;;5027543;28;20554;-70
2022/05/17 05:36:16;;;;;;;3.28;1.88;;;16.30;99.90;;;;;;5025980;28;20086;-70
2022/05/17 05:38:41;;;;;;;9.30;2.63;;;16.40;99.90;;;;;;5026874;28;20049;-70
2022/05/17 05:41:12;;;;;;;3.47;1.65;;;16.50;99.90;;;;;;5024972;28;20037;-70
2022/05/17 05:43:38;;;;;;;4.75;1.45;;;16.60;99.90;;;;;;5027946;28;20083;-70
2022/05/17 05:46:04;;;;;;;8.60;2.45;;;16.60;99.90;;;;;;5026311;28;20120;-71
2022/05/17 05:48:31;;;;;;;7.18;1.85;;;16.70;99.90;;;;;;5027807;28;20037;-70
2022/05/17 05:50:56;;;;;;;3.28;1.42;;;16.80;99.90;;;;;;5026803;28;20033;-70
2022/05/17 05:53:22;;;;;;;8.48;1.90;;;16.80;99.90;;;;;;5028431;28;20091;-70
2022/05/17 05:55:57;;;;;;;7.85;1.90;;;16.90;99.90;;;;;;5024716;28;20099;-70
2022/05/17 05:58:24;;;;;;;6.10;1.73;;;16.90;99.90;;;;;;5026814;28;20060;-70
2022/05/17 06:00:49;;;;;;;3.90;1.40;;;16.90;99.90;;;;;;5023331;28;20064;-70
2022/05/17 06:03:15;;;;;;;6.00;1.30;;;16.90;99.90;;;;;;5024212;28;20069;-70
2022/05/17 06:05:41;;;;;;;7.20;1.60;;;16.90;99.90;;;;;;5026854;28;20398;-70
2022/05/17 06:08:14;;;;;;;6.85;1.95;;;16.90;99.90;;;;;;5026429;28;20045;-70
2022/05/17 06:10:43;;;;;;;6.22;2.00;;;16.90;99.90;;;;;;5024005;28;20110;-71
2022/05/17 06:13:10;;;;;;;6.32;1.95;;;16.80;99.90;;;;;;5029114;28;20033;-69
2022/05/17 06:15:37;;;;;;;3.50;1.85;;;16.90;99.90;;;;;;5028934;28;20033;-70
2022/05/17 06:18:05;;;;;;;7.20;1.90;;;16.90;99.90;;;;;;5026054;28;20033;-70
2022/05/17 06:20:31;;;;;;;4.43;1.58;;;16.90;99.90;;;;;;5027876;28;20026;-70
2022/05/17 06:22:57;;;;;;;5.97;2.13;;;16.90;99.90;;;;;;5025128;28;20037;-71
2022/05/17 06:25:23;;;;;;;4.47;1.60;;;17.00;99.90;;;;;;5026396;28;20665;-69
2022/05/17 06:27:49;;;;;;;8.82;1.80;;;17.10;99.90;;;;;;5025720;28;20041;-70
2022/05/17 06:30:15;;;;;;;6.78;1.60;;;17.20;99.90;;;;;;5025852;28;20049;-70
2022/05/17 06:32:41;;;;;;;6.00;1.25;;;17.30;99.90;;;;;;5024813;28;20428;-69
2022/05/17 06:35:07;;;;;;;8.23;1.95;;;17.40;99.90;;;;;;5031354;28;20083;-70
2022/05/17 06:37:33;;;;;;;3.67;0.93;;;17.50;99.90;;;;;;5023015;28;20607;-69
2022/05/17 06:39:59;;;;;;;9.07;1.58;;;17.60;99.90;;;;;;5026214;28;20040;-70
2022/05/17 06:42:24;;;;;;;2.85;0.80;;;17.80;99.90;;;;;;5022905;28;20037;-70
2022/05/17 06:44:50;;;;;;;2.70;0.88;;;17.90;99.90;;;;;;5023449;28;20115;-70
2022/05/17 06:47:16;;;;;;;7.70;1.50;;;17.90;99.90;;;;;;5026907;28;20037;-70
2022/05/17 06:49:42;;;;;;;5.22;1.38;;;17.90;99.90;;;;;;5031251;28;20045;-71
2022/05/17 06:52:08;;;;;;;6.20;1.50;;;17.90;99.90;;;;;;5027501;28;20041;-71
2022/05/17 06:54:35;;;;;;;3.22;1.08;;;17.90;99.90;;;;;;5025987;28;20034;-70
2022/05/17 06:57:06;;;;;;;5.75;1.27;;;18.00;99.90;;;;;;5026603;28;20041;-71
2022/05/17 06:59:34;;;;;;;3.58;1.20;;;18.00;99.90;;;;;;5031536;28;20052;-70
2022/05/17 07:02:00;;;;;;;3.83;0.82;;;17.90;99.90;;;;;;5030372;28;20404;-71
2022/05/17 07:04:27;;;;;;;4.07;0.80;;;17.90;99.90;;;;;;5050568;28;20527;-71
2022/05/17 07:06:55;;;;;;;4.90;0.82;;;17.80;99.90;;;;;;5039259;28;20033;-71
2022/05/17 07:09:22;;;;;;;5.15;1.08;;;17.80;99.90;;;;;;5039063;28;20084;-70
2022/05/17 07:14:34;;;;;;;5.70;1.00;;;17.80;99.90;;;;;;5027714;28;20041;-70
2022/05/17 07:17:00;;;;;;;3.80;0.75;;;17.70;99.90;;;;;;5026260;28;20037;-71
2022/05/17 07:19:25;;;;;;;2.65;0.85;;;17.70;99.90;;;;;;5026092;28;20056;-71
2022/05/17 07:21:51;;;;;;;5.15;0.70;;;17.60;99.90;;;;;;5025584;28;20501;-70
2022/05/17 07:24:19;;;;;;;2.47;0.75;;;17.60;99.90;;;;;;5026846;28;20033;-70
2022/05/17 07:26:45;;;;;;;4.75;1.10;;;17.60;99.90;;;;;;5023076;28;20038;-71
2022/05/17 07:29:11;;;;;;;4.97;0.90;;;17.60;99.90;;;;;;5024649;28;20029;-70
2022/05/17 07:31:36;;;;;;;7.43;0.88;;;17.50;99.90;;;;;;5025222;28;20029;-70
2022/05/17 07:34:03;;;;;;;3.15;0.70;;;17.50;99.90;;;;;;5023860;28;20030;-71
2022/05/17 07:36:28;;;;;;;6.90;1.33;;;17.50;99.90;;;;;;5026583;28;21933;-70
2022/05/17 07:38:54;;;;;;;4.43;1.08;;;17.50;99.90;;;;;;5023606;28;20128;-71
2022/05/17 07:41:20;;;;;;;4.13;1.40;;;17.60;99.90;;;;;;5025355;28;20113;-70
2022/05/17 07:43:45;;;;;;;9.55;1.45;;;17.70;99.90;;;;;;5025916;28;20082;-70
2022/05/17 07:46:11;;;;;;;8.27;1.55;;;17.70;99.90;;;;;;5026020;28;20029;-69
2022/05/17 07:48:37;;;;;;;5.82;1.15;;;17.80;99.90;;;;;;5026512;28;20037;-70
2022/05/17 07:51:05;;;;;;;4.60;1.10;;;17.80;99.90;;;;;;5022209;28;20129;-70
2022/05/17 07:53:31;;;;;;;5.95;1.15;;;17.90;99.90;;;;;;5026418;28;20037;-71
2022/05/17 07:55:56;;;;;;;3.30;0.90;;;18.00;99.90;;;;;;5025200;28;20116;-70
2022/05/17 07:58:24;;;;;;;4.75;0.90;;;18.10;99.90;;;;;;5026659;28;20677;-70
2022/05/17 08:00:49;;;;;;;5.15;1.30;;;18.30;99.90;;;;;;5022849;28;20095;-70
2022/05/17 08:03:16;;;;;;;3.60;0.98;;;18.50;99.90;;;;;;5024125;28;20120;-69
2022/05/17 08:05:43;;;;;;;7.20;1.40;;;18.80;99.90;;;;;;5024120;28;20181;-70
2022/05/17 08:08:09;;;;;;;3.05;0.68;;;19.00;99.90;;;;;;5023264;28;20061;-70
2022/05/17 08:10:34;;;;;;;3.38;0.90;;;19.20;99.90;;;;;;5025209;28;20067;-70
2022/05/17 08:13:00;;;;;;;2.90;1.02;;;19.30;99.90;;;;;;5024500;28;20052;-70
2022/05/17 08:15:28;;;;;;;2.88;1.05;;;19.60;99.90;;;;;;5023941;28;20045;-70
2022/05/17 08:17:55;;;;;;;2.92;0.80;;;19.80;99.90;;;;;;5023621;28;20041;-70
2022/05/17 08:20:20;;;;;;;2.72;0.95;;;20.00;99.90;;;;;;5024413;28;20099;-68
2022/05/17 08:22:46;;;;;;;3.47;0.80;;;20.40;99.90;;;;;;5023531;28;20494;-71
2022/05/17 08:28:01;;;;;;;7.25;1.30;;;20.80;99.90;;;;;;5022831;28;20048;-70
2022/05/17 08:30:28;;;;;;;3.47;1.00;;;20.70;99.90;;;;;;5023188;28;20055;-71
2022/05/17 08:33:17;;;;;;;2.78;0.82;;;20.40;99.90;;;;;;5022356;28;20037;-70
2022/05/17 08:35:52;;;;;;;6.03;1.20;;;20.00;99.90;;;;;;5022997;28;20029;-71
2022/05/17 08:38:30;;;;;;;3.83;0.93;;;19.70;99.90;;;;;;5024051;28;20039;-70
2022/05/17 08:41:14;;;;;;;2.92;0.52;;;19.50;99.90;;;;;;5021400;28;20409;-71
2022/05/17 08:43:51;;;;;;;3.60;0.68;;;19.50;99.90;;;;;;5024095;28;20057;-70
2022/05/17 08:46:38;;;;;;;7.68;1.13;;;19.60;99.90;;;;;;5022989;28;20124;-71
2022/05/17 08:49:36;;;;;;;2.92;0.90;;;19.80;99.90;;;;;;5023827;28;20045;-71
2022/05/17 08:52:09;;;;;;;4.68;1.35;;;20.00;99.90;;;;;;5023195;28;20072;-70
2022/05/17 08:54:48;;;;;;;6.85;1.38;;;20.30;99.90;;;;;;5024467;28;20040;-71
2022/05/17 08:57:26;;;;;;;4.25;1.50;;;20.60;99.90;;;;;;5023957;28;20501;-70
2022/05/17 08:59:52;;;;;;;3.35;0.70;;;21.30;99.90;;;;;;5022578;28;20588;-70
2022/05/17 09:02:35;;;;;;;3.97;0.75;;;21.80;99.90;;;;;;5024265;28;20108;-69
2022/05/17 09:05:04;;;;;;;5.82;1.27;;;22.50;99.90;;;;;;5021445;28;20048;-71
2022/05/17 09:07:43;;;;;;;4.28;1.10;;;22.70;99.90;;;;;;5025033;28;20034;-70
2022/05/17 09:10:49;;;;;;;3.70;1.02;;;22.70;99.90;;;;;;5021366;28;20647;-70
2022/05/17 09:13:43;;;;;;;3.72;0.65;;;22.70;99.90;;;;;;5001222;28;20480;-69
2022/05/17 09:16:09;;;;;;;3.20;1.05;;;22.50;99.90;;;;;;5016025;28;20038;-68
2022/05/17 09:18:37;;;;;;;4.47;0.98;;;22.40;99.90;;;;;;5019178;28;20125;-67
2022/05/17 09:21:03;;;;;;;1.98;0.90;;;22.50;99.90;;;;;;5018810;28;20037;-68
2022/05/17 09:23:28;;;;;;;3.67;0.98;;;22.40;99.90;;;;;;5022236;28;20540;-71
2022/05/17 09:26:00;;;;;;;6.90;1.33;;;22.60;99.90;;;;;;5019773;28;20136;-70
2022/05/17 09:28:49;;;;;;;3.97;1.20;;;22.90;99.90;;;;;;5022050;28;20136;-69
2022/05/17 09:31:27;;;;;;;7.15;1.45;;;22.90;99.90;;;;;;5020822;28;20037;-69
2022/05/17 09:33:55;;;;;;;4.80;1.23;;;23.20;99.90;;;;;;5020826;28;20565;-69
2022/05/17 09:36:33;;;;;;;2.80;1.02;;;23.20;99.90;;;;;;5022337;28;20091;-68
2022/05/17 09:38:59;;;;;;;4.20;1.38;;;23.20;99.90;;;;;;5024420;28;20041;-69
2022/05/17 09:41:34;;;;;;;8.73;1.48;;;23.30;99.90;;;;;;5022093;28;20517;-69
2022/05/17 09:44:14;;;;;;;3.75;1.13;;;23.10;99.90;;;;;;5019121;28;20033;-68
2022/05/17 09:46:47;;;;;;;7.35;1.08;;;23.10;99.90;;;;;;5020104;28;20026;-70
2022/05/17 09:55:08;;;;;;;9.90;1.40;;;23.60;99.90;;;;;;5020859;28;20345;-71
2022/05/17 09:57:34;;;;;;;4.07;1.38;;;23.60;99.90;;;;;;5022062;28;20041;-71
2022/05/17 10:00:12;;;;;;;5.70;1.30;;;23.70;99.90;;;;;;5021231;28;20536;-68
2022/05/17 10:02:50;;;;;;;3.30;1.55;;;23.70;99.90;;;;;;5022724;28;20068;-68
2022/05/17 10:05:18;;;;;;;3.13;1.25;;;23.60;99.90;;;;;;5022751;28;20476;-69
2022/05/17 10:07:57;;;;;;;4.90;1.52;;;23.70;99.90;;;;;;5021847;28;20092;-68
2022/05/17 10:10:31;;;;;;;3.88;1.20;;;24.00;99.90;;;;;;5022865;28;20030;-68
2022/05/17 10:13:03;;;;;;;4.10;1.42;;;24.00;99.90;;;;;;5021968;28;20041;-69
2022/05/17 10:15:32;;;;;;;4.28;1.33;;;24.20;99.90;;;;;;5022404;28;20069;-70
2022/05/17 10:18:05;;;;;;;3.58;1.25;;;24.20;99.90;;;;;;5023719;28;20057;-69
2022/05/17 10:20:40;;;;;;;4.30;1.48;;;24.30;99.90;;;;;;5024252;28;20038;-71
2022/05/17 10:23:21;;;;;;;3.78;1.80;;;24.10;99.90;;;;;;5023150;28;20041;-71
2022/05/17 10:26:13;;;;;;;9.50;1.95;;;23.90;99.90;;;;;;5024618;28;20421;-70
2022/05/17 10:28:45;;;;;;;3.72;1.30;;;23.60;99.90;;;;;;5015030;28;20040;-70
2022/05/17 10:31:26;;;;;;;3.05;0.93;;;23.20;99.90;;;;;;5022817;28;20072;-70
2022/05/17 10:34:19;;;;;;;7.03;1.58;;;23.10;99.90;;;;;;5023279;28;20038;-70
2022/05/17 10:36:49;;;;;;;4.43;1.52;;;23.00;99.90;;;;;;5022063;28;20038;-69
2022/05/17 10:39:42;;;;;;;2.80;1.02;;;23.10;99.90;;;;;;5025230;28;20095;-71
2022/05/17 10:42:08;;;;;;;4.72;1.25;;;23.30;99.90;;;;;;5022091;28;20065;-71
2022/05/17 10:44:47;;;;;;;5.78;1.77;;;23.60;99.90;;;;;;5024994;28;20144;-70
2022/05/17 10:47:34;;;;;;;5.32;1.85;;;23.80;99.90;;;;;;5020893;28;20037;-71
2022/05/17 10:50:04;;;;;;;3.13;1.38;;;23.80;99.90;;;;;;5022928;28;20378;-70
2022/05/17 10:52:59;;;;;;;6.07;1.65;;;23.70;99.90;;;;;;5023165;28;20052;-70
2022/05/17 10:55:35;;;;;;;5.80;2.05;;;23.60;99.90;;;;;;5022733;28;20025;-69
2022/05/17 10:58:26;;;;;;;7.95;1.70;;;23.40;99.90;;;;;;5020185;28;20441;-70
2022/05/17 11:01:20;;;;;;;2.60;1.17;;;23.60;99.90;;;;;;5023241;28;20030;-68
2022/05/17 11:03:54;;;;;;;5.95;1.63;;;23.70;99.90;;;;;;5025181;28;20791;-69
2022/05/17 11:06:39;;;;;;;8.27;2.13;;;23.70;99.90;;;;;;5023639;28;20136;-67
2022/05/17 11:09:13;;;;;;;5.78;1.45;;;23.60;99.90;;;;;;5022991;28;20037;-68
2022/05/17 11:12:00;;;;;;;5.57;2.22;;;23.50;99.90;;;;;;5027052;28;20040;-68
2022/05/17 11:14:45;;;;;;;5.63;1.90;;;23.50;99.90;;;;;;5024432;28;20103;-68
2022/05/17 11:17:20;;;;;;;7.93;2.25;;;23.40;99.90;;;;;;5025934;28;20045;-68
2022/05/17 11:20:10;;;;;;;8.95;2.35;;;23.30;99.90;;;;;;5023822;28;20049;-70
2022/05/17 11:22:48;;;;;;;;;;;23.30;99.90;;;;;;5024476;28;20041;-67
2022/05/17 11:25:39;;;;;;;5.57;2.50;;;23.30;99.90;;;;;;5021839;28;19956;-69
2022/05/17 11:28:11;;;;;;;10.35;2.35;;;23.10;99.90;;;;;;5024753;28;20049;-69
2022/05/17 11:30:51;;;;;;;5.30;2.33;;;23.10;99.90;;;;;;5024180;28;20037;-69
2022/05/17 11:33:31;;;;;;;8.32;1.80;;;23.10;99.90;;;;;;5022196;28;20038;-68
2022/05/17 11:36:06;;;;;;;5.97;1.80;;;23.30;99.90;;;;;;5024036;28;20521;-67
2022/05/17 11:38:35;;;;;;;8.05;1.75;;;23.40;99.90;;;;;;5025362;28;20770;-69
2022/05/17 11:41:07;;;;;;;5.50;1.73;;;23.50;99.90;;;;;;5023207;28;20049;-67
2022/05/17 11:44:12;;;;;;;6.53;1.63;;;23.60;99.70;;;;;;5024158;28;20057;-69
2022/05/17 11:46:42;;;;;;;4.38;1.58;;;23.60;99.90;;;;;;5022798;28;20052;-69
2022/05/17 11:49:11;;;;;;;;;;;23.70;99.10;;;;;;5019857;28;20502;-69
2022/05/17 11:51:58;;;;;;;4.68;1.40;;;23.60;98.90;;;;;;5025122;28;19913;-69
2022/05/17 11:54:42;;;;;;;5.05;2.05;;;23.50;99.30;;;;;;5018502;28;20045;-69
2022/05/17 11:57:17;;;;;;;3.83;1.80;;;23.40;99.20;;;;;;5021068;28;20041;-69
2022/05/17 11:59:52;;;;;;;5.45;1.27;;;23.50;99.10;;;;;;5027460;28;20417;-69
2022/05/17 12:02:18;;;;;;;7.82;1.80;;;23.70;99.50;;;;;;5039692;28;20033;-68
2022/05/17 12:04:45;;;;;;;6.43;1.63;;;23.90;99.20;;;;;;5019754;28;20038;-69
2022/05/17 12:07:28;;;;;;;5.30;1.58;;;24.10;98.60;;;;;;5023010;28;20022;-69
2022/05/17 12:10:15;;;;;;;7.32;2.35;;;24.00;98.40;;;;;;5023270;28;20493;-68
2022/05/17 12:12:56;;;;;;;4.90;2.40;;;24.00;97.80;;;;;;5020453;28;20025;-69
2022/05/17 12:15:31;;;;;;;4.35;1.73;;;24.00;98.10;;;;;;5017747;28;20061;-69
2022/05/17 12:18:24;;;;;;;4.47;1.73;;;24.00;98.10;;;;;;5021127;28;20760;-69
2022/05/17 12:21:12;;;;;;;8.30;1.95;;;24.20;98.00;;;;;;5020021;28;20037;-69
2022/05/17 12:23:46;;;;;;;8.25;1.95;;;24.20;98.30;;;;;;5024260;28;20025;-68
2022/05/17 12:26:22;;;;;;;10.73;2.13;;;24.30;98.00;;;;;;5022919;28;20136;-69
2022/05/17 12:28:52;;;;;;;12.45;2.70;;;24.30;98.20;;;;;;5023160;28;20732;-69
2022/05/17 12:31:27;;;;;;;7.75;2.78;;;24.20;97.60;;;;;;5016529;28;20042;-68
2022/05/17 12:33:55;;;;;;;7.35;2.13;;;24.20;98.10;;;;;;5022707;28;20116;-68
2022/05/17 12:36:22;;;;;;;7.00;2.63;;;24.10;98.20;;;;;;5021831;28;20055;-67
2022/05/17 12:44:55;;;;;;;7.65;1.98;;;24.10;97.90;;;;;;5019865;28;20036;-67
2022/05/17 12:47:28;;;;;;;3.17;1.42;;;24.20;97.90;;;;;;5019940;28;20040;-68
2022/05/17 12:49:57;;;;;;;5.95;1.70;;;24.10;97.30;;;;;;5020379;28;20494;-69
2022/05/17 12:52:31;;;;;;;5.55;1.92;;;24.10;97.70;;;;;;5017130;28;20041;-67
2022/05/17 12:55:05;;;;;;;6.13;1.95;;;24.20;97.70;;;;;;5018976;28;20030;-69
2022/05/17 12:57:38;;;;;;;4.20;2.05;;;24.10;97.00;;;;;;5022676;28;20825;-68
2022/05/17 13:00:30;;;;;;;3.55;1.90;;;24.00;97.10;;;;;;5018769;28;20134;-69
2022/05/17 13:03:01;;;;;;;4.85;1.98;;;24.00;97.20;;;;;;5017552;28;20038;-69
2022/05/17 13:05:35;;;;;;;7.57;2.20;;;23.90;97.50;;;;;;5016296;28;20128;-68
2022/05/17 13:08:04;;;;;;;6.50;1.80;;;23.90;97.50;;;;;;5015883;28;20502;-68
2022/05/17 13:10:29;;;;;;;4.55;1.52;;;24.00;97.70;;;;;;5015439;28;20476;-68
2022/05/17 13:12:55;;;;;;;8.68;2.17;;;24.10;97.90;;;;;;5017721;28;20132;-69
2022/05/17 13:15:22;;;;;;;6.22;1.90;;;24.30;97.70;;;;;;5016784;28;20132;-69
2022/05/17 13:17:54;;;;;;;6.38;1.75;;;24.50;97.00;;;;;;5018251;28;20065;-69
2022/05/17 13:20:28;;;;;;;4.03;1.40;;;24.60;96.50;;;;;;5016679;28;20029;-69
2022/05/17 13:22:56;;;;;;;3.72;1.02;;;24.60;96.30;;;;;;5018241;28;20045;-69
2022/05/17 13:25:40;;;;;;;8.38;1.10;;;24.60;97.20;;;;;;5016187;28;20037;-69
2022/05/17 13:28:07;;;;;;;4.47;1.58;;;24.60;96.50;;;;;;5015823;28;20038;-69